Time;durP1;ratioP1;P1;durP2;ratioP2;P2;SDS_P1;SDS_P2;PMS_P1;PMS_P2;Temp;Humidity;BMP_temperature;BMP_pressure;BME280_temperature;BME280_humidity;BME280_pressure;Samples;Min_cycle;Max_cycle;Signal;HPM_P1;HPM_P2
2022/07/08 00:00:44;;;;;;;5.32;1.17;;;13.00;99.90;;;;;;5089504;28;20051;-39
2022/07/08 00:03:10;;;;;;;6.32;1.00;;;13.00;99.90;;;;;;5089626;28;20036;-39
2022/07/08 00:05:36;;;;;;;8.65;1.45;;;13.00;99.90;;;;;;5089274;28;20055;-39
2022/07/08 00:08:02;;;;;;;6.65;0.90;;;13.00;99.90;;;;;;5089480;28;20036;-39
2022/07/08 00:10:28;;;;;;;6.43;0.95;;;13.00;99.90;;;;;;5088296;28;20100;-39
2022/07/08 00:12:53;;;;;;;4.93;0.75;;;13.20;99.90;;;;;;5089561;28;20412;-39
2022/07/08 00:15:21;;;;;;;7.43;0.90;;;13.20;99.90;;;;;;5089236;28;20520;-39
2022/07/08 00:17:47;;;;;;;7.28;1.25;;;12.90;99.90;;;;;;5088953;28;20126;-39
2022/07/08 00:20:12;;;;;;;8.63;1.80;;;12.80;99.90;;;;;;5088965;28;20040;-39
2022/07/08 00:22:38;;;;;;;7.32;0.70;;;12.80;99.90;;;;;;5088381;28;20542;-39
2022/07/08 00:25:05;;;;;;;5.57;0.63;;;12.80;99.90;;;;;;5089112;28;20036;-39
2022/07/08 00:27:30;;;;;;;7.15;1.02;;;12.80;99.90;;;;;;5087642;28;20043;-39
2022/07/08 00:29:56;;;;;;;5.72;0.70;;;12.80;99.90;;;;;;5088405;28;20040;-39
2022/07/08 00:32:22;;;;;;;5.45;0.70;;;12.80;99.90;;;;;;5088021;28;20048;-39
2022/07/08 00:34:48;;;;;;;5.47;0.80;;;12.80;99.90;;;;;;5088584;28;20050;-39
2022/07/08 00:37:14;;;;;;;9.10;1.00;;;13.10;99.90;;;;;;5088890;28;20051;-39
2022/07/08 00:39:39;;;;;;;7.55;0.82;;;12.80;99.90;;;;;;5088323;28;20051;-38
2022/07/08 00:42:05;;;;;;;8.82;1.55;;;13.10;99.90;;;;;;5088181;28;20036;-39
2022/07/08 00:44:32;;;;;;;7.72;0.88;;;12.70;99.90;;;;;;5088871;28;20040;-39
2022/07/08 00:46:58;;;;;;;7.57;1.10;;;12.70;99.90;;;;;;5089282;28;20036;-39
2022/07/08 00:49:24;;;;;;;11.43;0.80;;;12.70;99.90;;;;;;5088792;28;20357;-39
2022/07/08 00:51:50;;;;;;;9.82;0.80;;;13.20;99.90;;;;;;5088933;28;20393;-39
2022/07/08 00:54:20;;;;;;;8.10;0.82;;;12.70;99.90;;;;;;5088285;28;20048;-39
2022/07/08 00:56:46;;;;;;;7.47;0.70;;;12.70;99.90;;;;;;5088758;28;20043;-39
2022/07/08 00:59:12;;;;;;;3.72;0.77;;;12.70;99.90;;;;;;5088066;28;20043;-39
2022/07/08 01:01:38;;;;;;;6.68;1.10;;;13.00;99.90;;;;;;5087746;28;20032;-39
2022/07/08 01:04:04;;;;;;;7.13;0.45;;;12.80;99.90;;;;;;5088324;28;20040;-39
2022/07/08 01:06:29;;;;;;;8.23;1.05;;;12.70;99.90;;;;;;5087816;28;20452;-39
2022/07/08 01:08:55;;;;;;;10.40;2.28;;;12.70;99.90;;;;;;5087690;28;20045;-39
2022/07/08 01:11:21;;;;;;;7.82;1.00;;;13.50;99.90;;;;;;5086377;28;20413;-39
2022/07/08 01:13:47;;;;;;;11.07;1.00;;;12.70;99.90;;;;;;5087143;28;20047;-39
2022/07/08 01:16:14;;;;;;;6.88;0.82;;;13.10;99.90;;;;;;5085722;28;20084;-39
2022/07/08 01:18:40;;;;;;;10.07;0.73;;;12.70;99.90;;;;;;5087507;28;20123;-39
2022/07/08 01:21:07;;;;;;;9.38;0.93;;;12.60;99.90;;;;;;5087527;28;20055;-39
2022/07/08 01:23:33;;;;;;;6.00;0.60;;;12.40;99.90;;;;;;5085998;28;20127;-39
2022/07/08 01:26:00;;;;;;;6.72;0.65;;;12.30;99.90;;;;;;5087875;28;20070;-39
2022/07/08 01:28:26;;;;;;;5.68;1.17;;;12.70;99.90;;;;;;5087334;28;20139;-39
2022/07/08 01:30:52;;;;;;;5.15;0.80;;;12.10;99.90;;;;;;5087460;28;20050;-39
2022/07/08 01:33:18;;;;;;;7.90;0.93;;;12.00;99.90;;;;;;5087640;28;20122;-39
2022/07/08 01:35:44;;;;;;;4.93;1.00;;;11.80;99.90;;;;;;5087819;28;20123;-39
2022/07/08 01:38:10;;;;;;;8.00;0.85;;;12.50;99.90;;;;;;5087823;28;20465;-39
2022/07/08 01:40:35;;;;;;;6.03;1.00;;;11.50;99.90;;;;;;5087851;28;20355;-39
2022/07/08 01:43:01;;;;;;;8.13;1.25;;;11.10;99.90;;;;;;5087877;28;20062;-39
2022/07/08 01:45:27;;;;;;;7.30;1.00;;;12.40;99.90;;;;;;5087888;28;20085;-39
2022/07/08 01:47:53;;;;;;;7.00;1.02;;;11.20;99.90;;;;;;5087659;28;20043;-39
2022/07/08 01:50:18;;;;;;;5.78;0.90;;;11.30;99.90;;;;;;5087661;28;20040;-39
2022/07/08 01:52:44;;;;;;;4.35;0.65;;;11.30;99.90;;;;;;5086347;28;20055;-40
2022/07/08 01:55:10;;;;;;;7.28;1.00;;;11.70;99.90;;;;;;5087776;28;20079;-40
2022/07/08 01:57:35;;;;;;;7.07;1.10;;;11.30;99.90;;;;;;5087621;28;20545;-39
2022/07/08 02:00:03;;;;;;;13.18;1.83;;;11.30;99.90;;;;;;5087459;28;20046;-39
2022/07/08 02:02:28;;;;;;;4.00;0.65;;;11.30;99.90;;;;;;5087537;28;20036;-39
2022/07/08 02:04:54;;;;;;;5.10;0.68;;;11.10;99.90;;;;;;5087705;28;20470;-39
2022/07/08 02:07:20;;;;;;;8.35;0.70;;;11.00;99.90;;;;;;5087599;28;20028;-39
2022/07/08 02:09:45;;;;;;;5.65;0.80;;;10.90;99.90;;;;;;5086886;28;20575;-39
2022/07/08 02:12:20;;;;;;;8.05;1.33;;;10.60;99.90;;;;;;5087743;28;20433;-39
2022/07/08 02:14:51;;;;;;;6.10;0.88;;;10.60;99.90;;;;;;5087043;28;20509;-39
2022/07/08 02:17:17;;;;;;;11.45;1.63;;;10.80;99.90;;;;;;5087403;28;20110;-40
2022/07/08 02:19:43;;;;;;;10.25;1.95;;;12.20;99.90;;;;;;5087081;28;20048;-39
2022/07/08 02:22:10;;;;;;;9.80;1.80;;;10.70;99.90;;;;;;5087358;28;20131;-39
2022/07/08 02:24:36;;;;;;;7.82;1.10;;;11.10;99.90;;;;;;5090765;28;20047;-39
2022/07/08 02:27:03;;;;;;;11.25;0.88;;;10.50;99.90;;;;;;5091016;28;20036;-39
2022/07/08 02:29:29;;;;;;;8.27;0.77;;;10.70;99.90;;;;;;5091376;28;20047;-39
2022/07/08 02:31:55;;;;;;;12.00;1.20;;;11.90;99.90;;;;;;5090914;28;20039;-39
2022/07/08 02:34:21;;;;;;;12.20;1.17;;;10.70;99.90;;;;;;5090922;28;20680;-39
2022/07/08 02:36:46;;;;;;;11.20;1.13;;;10.60;99.90;;;;;;5090815;28;20036;-39
2022/07/08 02:39:12;;;;;;;6.35;0.90;;;11.50;99.90;;;;;;5090990;28;20758;-40
2022/07/08 02:41:39;;;;;;;6.40;0.70;;;11.20;99.90;;;;;;5091070;28;20115;-39
2022/07/08 02:44:06;;;;;;;4.97;0.77;;;10.50;99.90;;;;;;5090709;28;20564;-39
2022/07/08 02:46:32;;;;;;;6.85;0.95;;;10.40;99.90;;;;;;5090286;28;20106;-39
2022/07/08 02:48:58;;;;;;;5.63;1.10;;;10.20;99.90;;;;;;5090070;28;20035;-39
2022/07/08 02:51:23;;;;;;;9.43;1.60;;;10.40;99.90;;;;;;5090447;28;20054;-39
2022/07/08 02:53:49;;;;;;;7.45;0.73;;;10.10;99.90;;;;;;5090388;28;20052;-39
2022/07/08 02:56:15;;;;;;;5.00;0.95;;;9.90;99.90;;;;;;5090478;28;20097;-39
2022/07/08 02:58:41;;;;;;;8.88;1.40;;;9.90;99.90;;;;;;5090833;28;20044;-39
2022/07/08 03:01:06;;;;;;;7.28;1.45;;;10.10;99.90;;;;;;5090583;28;20080;-39
2022/07/08 03:03:32;;;;;;;6.57;1.00;;;10.00;99.90;;;;;;5090814;28;20044;-39
2022/07/08 03:05:58;;;;;;;8.27;1.15;;;10.00;99.90;;;;;;5091014;28;20028;-39
2022/07/08 03:08:23;;;;;;;10.18;1.35;;;10.40;99.90;;;;;;5090836;28;20044;-39
2022/07/08 03:10:49;;;;;;;6.65;1.40;;;10.30;99.90;;;;;;5089242;28;20503;-39
2022/07/08 03:13:15;;;;;;;8.13;1.70;;;10.00;99.90;;;;;;5090163;28;20039;-39
2022/07/08 03:15:41;;;;;;;8.80;1.25;;;10.10;99.90;;;;;;5089995;28;20116;-39
2022/07/08 03:18:07;;;;;;;5.97;1.38;;;9.90;99.90;;;;;;5089816;28;20039;-39
2022/07/08 03:20:33;;;;;;;7.88;1.50;;;10.20;99.90;;;;;;5089846;28;20512;-39
2022/07/08 03:22:59;;;;;;;8.75;1.95;;;10.30;99.90;;;;;;5089861;28;20088;-38
2022/07/08 03:25:25;;;;;;;13.15;1.83;;;10.20;99.90;;;;;;5089641;28;20361;-38
2022/07/08 03:27:50;;;;;;;12.10;3.05;;;10.60;99.90;;;;;;5089589;28;20043;-39
2022/07/08 03:30:16;;;;;;;6.40;1.20;;;10.60;99.90;;;;;;5089202;28;20143;-39
2022/07/08 03:32:42;;;;;;;8.50;1.40;;;10.30;99.90;;;;;;5089534;28;20125;-39
2022/07/08 03:35:08;;;;;;;10.27;1.77;;;10.40;99.90;;;;;;5089007;28;20379;-39
2022/07/08 03:37:34;;;;;;;9.68;1.85;;;10.20;99.90;;;;;;5089851;28;20482;-39
2022/07/08 03:41:19;;;;;;;14.35;2.13;;;10.70;99.90;;;;;;5088936;28;20053;-39
2022/07/08 03:42:45;;;;;;;8.10;1.50;;;10.70;99.90;;;;;;5088971;28;20092;-39
2022/07/08 03:45:11;;;;;;;9.25;1.38;;;10.30;99.90;;;;;;5088850;28;20031;-39
2022/07/08 03:47:37;;;;;;;10.93;1.95;;;10.80;99.90;;;;;;5088644;28;20216;-38
2022/07/08 03:50:02;;;;;;;8.82;1.73;;;11.00;99.90;;;;;;5089103;28;20039;-38
2022/07/08 03:52:29;;;;;;;5.82;1.42;;;10.50;99.90;;;;;;5087846;28;20044;-39
2022/07/08 03:54:55;;;;;;;11.35;1.90;;;11.00;99.90;;;;;;5088348;28;20097;-39
2022/07/08 03:57:21;;;;;;;6.93;1.38;;;11.30;99.90;;;;;;5089140;28;20123;-39
2022/07/08 03:59:46;;;;;;;9.73;2.60;;;11.30;99.90;;;;;;5089066;28;20056;-39
2022/07/08 04:02:12;;;;;;;8.57;2.17;;;11.10;99.90;;;;;;5089019;28;20097;-38
2022/07/08 04:04:37;;;;;;;10.48;2.20;;;11.10;99.90;;;;;;5088950;28;20506;-39
2022/07/08 04:07:03;;;;;;;9.63;2.00;;;10.70;99.90;;;;;;5088484;28;20048;-38
2022/07/08 04:09:29;;;;;;;12.45;2.47;;;10.70;99.90;;;;;;5088035;28;20163;-39
2022/07/08 04:11:55;;;;;;;8.13;1.23;;;11.10;99.90;;;;;;5087952;28;20040;-39
2022/07/08 04:14:20;;;;;;;11.00;1.63;;;11.80;99.90;;;;;;5088888;28;20089;-38
2022/07/08 04:16:46;;;;;;;4.63;1.30;;;11.30;99.90;;;;;;5089130;28;20044;-39
2022/07/08 04:19:12;;;;;;;8.50;1.30;;;11.80;99.90;;;;;;5088462;28;20032;-39
2022/07/08 04:21:37;;;;;;;4.57;1.30;;;11.60;99.90;;;;;;5088813;28;20075;-39
2022/07/08 04:24:03;;;;;;;12.52;1.45;;;11.80;99.90;;;;;;5088423;28;20520;-39
2022/07/08 04:26:31;;;;;;;7.70;1.95;;;12.10;99.90;;;;;;5087042;28;20051;-39
2022/07/08 04:28:58;;;;;;;7.88;1.33;;;12.10;99.90;;;;;;5088280;28;20044;-39
2022/07/08 04:31:25;;;;;;;11.65;1.85;;;11.90;99.90;;;;;;5088606;28;20059;-39
2022/07/08 04:33:51;;;;;;;9.65;1.30;;;12.20;99.90;;;;;;5088517;28;20044;-39
2022/07/08 04:36:16;;;;;;;8.02;1.45;;;12.30;99.90;;;;;;5088481;28;20504;-39
2022/07/08 04:38:42;;;;;;;9.52;2.17;;;12.30;99.90;;;;;;5088501;28;20064;-39
2022/07/08 04:41:08;;;;;;;6.88;1.10;;;12.40;99.90;;;;;;5088197;28;20043;-39
2022/07/08 04:43:34;;;;;;;10.70;1.50;;;12.10;99.90;;;;;;5088163;28;20118;-39
2022/07/08 04:46:00;;;;;;;8.27;1.85;;;12.20;99.90;;;;;;5087826;28;20047;-39
2022/07/08 04:48:25;;;;;;;10.75;1.40;;;12.40;99.90;;;;;;5087403;28;20592;-39
2022/07/08 04:50:51;;;;;;;6.65;1.20;;;12.40;99.90;;;;;;5087676;28;20052;-39
2022/07/08 04:53:17;;;;;;;6.68;1.20;;;13.00;99.90;;;;;;5088015;28;20036;-38
2022/07/08 04:55:42;;;;;;;8.50;1.95;;;13.00;99.90;;;;;;5088115;28;20495;-39
2022/07/08 04:58:08;;;;;;;9.48;1.40;;;12.70;99.90;;;;;;5087685;28;20040;-39
2022/07/08 05:00:34;;;;;;;9.00;1.75;;;13.00;99.90;;;;;;5088181;28;20043;-39
2022/07/08 05:03:01;;;;;;;6.15;1.52;;;13.00;99.90;;;;;;5087735;28;20172;-39
2022/07/08 05:05:27;;;;;;;8.60;1.80;;;13.30;99.90;;;;;;5088016;28;20056;-39
2022/07/08 05:07:54;;;;;;;8.98;2.17;;;13.10;99.90;;;;;;5088298;28;20051;-39
2022/07/08 05:10:23;;;;;;;7.85;1.17;;;13.00;99.90;;;;;;5087415;28;20409;-39
2022/07/08 05:12:49;;;;;;;13.57;1.40;;;13.50;99.90;;;;;;5086518;28;20379;-39
2022/07/08 05:15:15;;;;;;;11.05;1.58;;;13.50;99.90;;;;;;5087856;28;20044;-39
2022/07/08 05:17:41;;;;;;;10.10;2.67;;;13.90;99.90;;;;;;5088085;28;20397;-39
2022/07/08 05:20:09;;;;;;;9.23;1.75;;;14.10;99.90;;;;;;5087088;28;20044;-39
2022/07/08 05:22:36;;;;;;;7.82;1.77;;;14.40;99.90;;;;;;5086543;28;20055;-39
2022/07/08 05:25:04;;;;;;;9.07;1.52;;;14.70;99.90;;;;;;5088166;28;20050;-39
2022/07/08 05:27:29;;;;;;;8.30;1.52;;;14.90;99.90;;;;;;5088654;28;20126;-40
2022/07/08 05:29:55;;;;;;;5.15;0.93;;;15.00;99.90;;;;;;5088141;28;20138;-39
2022/07/08 05:32:21;;;;;;;8.50;1.38;;;15.30;99.90;;;;;;5088202;28;20548;-39
2022/07/08 05:34:47;;;;;;;7.50;1.13;;;15.50;99.90;;;;;;5087479;28;20394;-39
2022/07/08 05:37:13;;;;;;;7.93;1.10;;;15.80;99.90;;;;;;5087684;28;20047;-40
2022/07/08 05:39:40;;;;;;;5.70;0.98;;;16.00;99.90;;;;;;5087415;28;20036;-41
2022/07/08 05:42:08;;;;;;;11.30;1.25;;;16.20;99.90;;;;;;5087444;28;20040;-39
2022/07/08 05:44:34;;;;;;;9.30;1.10;;;16.30;99.90;;;;;;5087744;28;20048;-39
2022/07/08 05:47:00;;;;;;;6.93;0.93;;;16.40;99.90;;;;;;5087991;28;20068;-40
2022/07/08 05:49:26;;;;;;;8.45;1.27;;;16.80;99.90;;;;;;5086508;28;20032;-40
2022/07/08 05:51:53;;;;;;;6.43;0.80;;;17.20;99.90;;;;;;5087806;28;20040;-40
2022/07/08 05:54:18;;;;;;;8.27;1.15;;;17.50;99.90;;;;;;5087696;28;20046;-40
2022/07/08 05:56:44;;;;;;;6.03;0.80;;;17.70;99.90;;;;;;5087447;28;20040;-40
2022/07/08 05:59:10;;;;;;;11.00;1.17;;;18.00;99.90;;;;;;5090217;28;20035;-40
2022/07/08 06:01:35;;;;;;;6.85;1.27;;;18.00;99.90;;;;;;5091945;28;20044;-40
2022/07/08 06:04:01;;;;;;;8.27;1.00;;;18.00;99.90;;;;;;5091534;28;20044;-40
2022/07/08 06:06:26;;;;;;;5.95;0.90;;;17.90;99.90;;;;;;5091082;28;20352;-40
2022/07/08 06:08:52;;;;;;;7.03;0.70;;;17.90;99.90;;;;;;5091088;28;20178;-40
2022/07/08 06:11:18;;;;;;;7.55;0.80;;;17.90;99.90;;;;;;5090814;28;20048;-40
2022/07/08 06:13:43;;;;;;;5.18;0.77;;;18.10;99.90;;;;;;5091482;28;20048;-40
2022/07/08 06:16:09;;;;;;;6.47;0.73;;;18.20;99.90;;;;;;5090939;28;20147;-40
2022/07/08 06:18:35;;;;;;;9.10;1.70;;;18.20;99.90;;;;;;5090630;28;20562;-40
2022/07/08 06:21:01;;;;;;;6.50;0.88;;;18.20;99.90;;;;;;5090896;28;20048;-40
2022/07/08 06:23:27;;;;;;;5.57;1.23;;;18.30;99.90;;;;;;5090256;28;20389;-40
2022/07/08 06:25:52;;;;;;;6.65;1.55;;;18.80;99.90;;;;;;5091218;28;20040;-40
2022/07/08 06:28:18;;;;;;;7.40;0.93;;;18.50;99.90;;;;;;5090703;28;20476;-40
2022/07/08 06:30:44;;;;;;;8.82;0.80;;;18.50;99.90;;;;;;5091299;28;20055;-40
2022/07/08 06:33:09;;;;;;;12.02;1.27;;;18.50;99.90;;;;;;5090844;28;20050;-40
2022/07/08 06:35:35;;;;;;;7.80;1.10;;;18.50;99.90;;;;;;5090874;28;20054;-40
2022/07/08 06:38:01;;;;;;;8.55;1.15;;;18.50;99.90;;;;;;5090776;28;20091;-41
2022/07/08 06:40:27;;;;;;;7.40;0.90;;;18.60;99.90;;;;;;5089988;28;20475;-40
2022/07/08 06:42:53;;;;;;;5.55;0.73;;;18.70;99.90;;;;;;5091088;28;20423;-40
2022/07/08 06:45:19;;;;;;;5.32;0.70;;;18.70;99.90;;;;;;5090341;28;20040;-40
2022/07/08 06:47:45;;;;;;;7.35;1.20;;;18.80;99.90;;;;;;5090160;28;20111;-40
2022/07/08 06:50:11;;;;;;;9.35;1.40;;;18.80;99.90;;;;;;5090119;28;20209;-40
2022/07/08 06:52:37;;;;;;;7.22;1.38;;;18.90;99.90;;;;;;5090425;28;20052;-40
2022/07/08 06:55:03;;;;;;;6.60;1.10;;;19.00;99.90;;;;;;5090009;28;20036;-40
2022/07/08 06:57:30;;;;;;;11.48;0.93;;;19.10;99.90;;;;;;5089897;28;20040;-40
2022/07/08 06:59:56;;;;;;;7.28;0.90;;;19.20;99.90;;;;;;5088563;28;20361;-40
2022/07/08 07:02:22;;;;;;;7.07;1.02;;;19.30;99.90;;;;;;5090174;28;20043;-40
2022/07/08 07:04:48;;;;;;;3.63;0.60;;;19.50;99.90;;;;;;5090419;28;20385;-40
2022/07/08 07:07:14;;;;;;;5.60;1.17;;;19.60;99.90;;;;;;5090648;28;20070;-42
2022/07/08 07:09:39;;;;;;;10.05;1.90;;;19.90;99.90;;;;;;5089171;28;20481;-40
2022/07/08 07:12:06;;;;;;;9.15;0.68;;;20.10;99.90;;;;;;5089932;28;20065;-41
2022/07/08 07:14:33;;;;;;;5.88;1.13;;;20.30;99.90;;;;;;5089444;28;20048;-42
2022/07/08 07:17:00;;;;;;;5.10;0.50;;;20.40;99.90;;;;;;5089288;28;20136;-40
2022/07/08 07:19:27;;;;;;;6.38;1.08;;;20.30;99.90;;;;;;5088273;28;20083;-40
2022/07/08 07:21:53;;;;;;;3.80;0.82;;;20.20;99.90;;;;;;5089939;28;20042;-40
2022/07/08 07:24:19;;;;;;;6.10;0.68;;;20.00;99.90;;;;;;5089584;28;20516;-40
2022/07/08 07:26:45;;;;;;;6.25;0.82;;;20.00;99.90;;;;;;5089694;28;20036;-41
2022/07/08 07:29:10;;;;;;;5.28;0.52;;;20.00;99.90;;;;;;5089865;28;20036;-40
2022/07/08 07:31:36;;;;;;;6.32;0.85;;;20.00;99.90;;;;;;5089274;28;20039;-41
2022/07/08 07:34:03;;;;;;;10.35;1.60;;;19.90;99.90;;;;;;5089058;28;20117;-40
2022/07/08 07:36:29;;;;;;;7.95;0.95;;;19.90;99.90;;;;;;5088840;28;20043;-41
2022/07/08 07:38:54;;;;;;;7.40;0.88;;;19.90;99.90;;;;;;5089357;28;20447;-40
2022/07/08 07:41:20;;;;;;;7.10;0.82;;;19.90;99.90;;;;;;5088269;28;20047;-40
2022/07/08 07:43:46;;;;;;;5.85;0.77;;;20.00;99.90;;;;;;5089163;28;20080;-42
2022/07/08 07:46:11;;;;;;;5.75;1.02;;;20.20;99.90;;;;;;5089373;28;20043;-40
2022/07/08 07:48:37;;;;;;;6.47;1.00;;;20.50;99.90;;;;;;5088605;28;20040;-41
2022/07/08 07:51:04;;;;;;;5.78;0.60;;;20.80;99.90;;;;;;5087276;28;20047;-42
2022/07/08 07:53:29;;;;;;;6.03;0.95;;;21.00;99.90;;;;;;5088880;28;20038;-41
2022/07/08 07:55:57;;;;;;;5.65;0.63;;;21.10;99.60;;;;;;5089134;28;20389;-41
2022/07/08 07:58:23;;;;;;;7.53;1.38;;;21.10;98.90;;;;;;5089143;28;20040;-40
2022/07/08 08:00:49;;;;;;;7.47;0.85;;;21.10;98.60;;;;;;5088731;28;20079;-42
2022/07/08 08:03:15;;;;;;;6.43;0.50;;;21.00;98.40;;;;;;5089222;28;20591;-41
2022/07/08 08:05:42;;;;;;;6.35;0.80;;;20.90;98.40;;;;;;5088591;28;20076;-41
2022/07/08 08:08:08;;;;;;;8.75;0.70;;;20.90;98.50;;;;;;5089195;28;20048;-41
2022/07/08 08:10:34;;;;;;;3.35;0.65;;;20.70;98.60;;;;;;5088509;28;20051;-40
2022/07/08 08:13:00;;;;;;;4.13;0.50;;;20.60;98.70;;;;;;5089509;28;20048;-41
2022/07/08 08:15:29;;;;;;;6.80;0.60;;;20.50;98.90;;;;;;5088782;28;20043;-40
2022/07/08 08:17:56;;;;;;;4.45;0.98;;;20.40;98.80;;;;;;5089131;28;20055;-42
2022/07/08 08:20:24;;;;;;;5.50;0.50;;;20.30;98.90;;;;;;5088011;28;20477;-41
2022/07/08 08:22:51;;;;;;;4.03;0.82;;;20.30;99.30;;;;;;5087994;28;20074;-43
2022/07/08 08:25:17;;;;;;;6.35;0.70;;;20.30;99.40;;;;;;5088825;28;20162;-41
2022/07/08 08:27:43;;;;;;;4.13;0.60;;;20.40;99.50;;;;;;5087848;28;20051;-42
2022/07/08 08:30:10;;;;;;;4.93;0.60;;;20.50;99.70;;;;;;5088037;28;20052;-41
2022/07/08 08:32:36;;;;;;;7.03;1.05;;;20.40;99.60;;;;;;5088388;28;20387;-41
2022/07/08 08:35:02;;;;;;;4.90;0.50;;;20.40;99.60;;;;;;5088696;28;20055;-40
2022/07/08 08:37:28;;;;;;;4.40;1.08;;;20.40;99.70;;;;;;5088612;28;20370;-40
2022/07/08 08:39:53;;;;;;;5.22;0.55;;;20.30;99.70;;;;;;5088661;28;20100;-41
2022/07/08 08:42:20;;;;;;;7.47;1.10;;;20.30;99.80;;;;;;5088878;28;20229;-40
2022/07/08 08:44:49;;;;;;;6.93;1.30;;;20.70;99.90;;;;;;5086920;28;20477;-42
2022/07/08 08:47:25;;;;;;;4.80;0.65;;;20.90;99.90;;;;;;5088512;28;20036;-42
2022/07/08 08:49:54;;;;;;;5.07;0.65;;;21.00;99.00;;;;;;5088480;28;20040;-41
2022/07/08 08:52:23;;;;;;;6.38;0.85;;;21.10;98.60;;;;;;5088337;28;20036;-40
2022/07/08 08:54:51;;;;;;;4.05;0.77;;;21.30;98.70;;;;;;5088176;28;20039;-41
2022/07/08 08:57:18;;;;;;;6.20;0.70;;;21.50;98.50;;;;;;5088257;28;20036;-42
2022/07/08 08:59:46;;;;;;;7.20;1.17;;;21.60;98.20;;;;;;5087893;28;20064;-40
2022/07/08 09:02:12;;;;;;;6.07;0.80;;;21.60;97.70;;;;;;5088104;28;20048;-43
2022/07/08 09:04:38;;;;;;;4.68;0.55;;;21.60;97.40;;;;;;5088106;28;20036;-41
2022/07/08 09:07:05;;;;;;;4.57;1.00;;;21.50;97.40;;;;;;5087980;28;20453;-41
2022/07/08 09:09:30;;;;;;;6.72;0.82;;;21.30;97.40;;;;;;5087476;28;20052;-40
2022/07/08 09:11:56;;;;;;;3.40;0.52;;;21.30;97.40;;;;;;5087485;28;20047;-41
2022/07/08 09:14:23;;;;;;;4.10;1.00;;;21.10;97.60;;;;;;5088021;28;20040;-41
2022/07/08 09:17:13;;;;;;;7.40;0.80;;;21.00;97.70;;;;;;5087540;28;20090;-41
2022/07/08 09:19:42;;;;;;;5.25;0.75;;;20.80;97.90;;;;;;5087616;28;20032;-40
2022/07/08 09:22:08;;;;;;;8.43;1.08;;;20.80;98.60;;;;;;5087791;28;20043;-42
2022/07/08 09:24:35;;;;;;;8.75;1.08;;;20.70;98.20;;;;;;5087960;28;20044;-40
2022/07/08 09:27:03;;;;;;;11.55;1.30;;;20.70;98.20;;;;;;5087987;28;20385;-42
2022/07/08 09:29:29;;;;;;;5.85;0.80;;;20.70;98.70;;;;;;5088195;28;20347;-41
2022/07/08 09:32:09;;;;;;;10.57;0.90;;;20.70;98.60;;;;;;5088073;28;20043;-41
2022/07/08 09:34:36;;;;;;;5.68;0.98;;;20.80;98.30;;;;;;5086968;28;20044;-43
2022/07/08 09:37:11;;;;;;;8.55;1.17;;;20.90;98.30;;;;;;5087716;28;20540;-40
2022/07/08 09:39:37;;;;;;;5.03;0.90;;;20.80;98.60;;;;;;5085984;28;20478;-40
2022/07/08 09:42:06;;;;;;;4.07;0.88;;;20.80;98.90;;;;;;5087881;28;20051;-40
2022/07/08 09:44:33;;;;;;;5.07;0.90;;;20.80;99.10;;;;;;5087378;28;20040;-41
2022/07/08 09:46:59;;;;;;;8.20;0.93;;;20.90;98.60;;;;;;5088041;28;20036;-41
2022/07/08 09:49:27;;;;;;;4.50;0.85;;;21.00;98.00;;;;;;5088117;28;20075;-41
2022/07/08 09:51:54;;;;;;;6.72;1.10;;;21.20;98.00;;;;;;5087533;28;20043;-41
2022/07/08 09:54:21;;;;;;;4.95;1.00;;;21.40;98.20;;;;;;5087829;28;20036;-40
2022/07/08 09:57:04;;;;;;;4.80;1.00;;;21.60;98.00;;;;;;5087664;28;20449;-42
2022/07/08 09:59:31;;;;;;;10.45;1.30;;;21.80;97.80;;;;;;5087503;28;20166;-41
2022/07/08 10:01:58;;;;;;;11.50;1.48;;;21.80;97.10;;;;;;5087516;28;20391;-41
2022/07/08 10:04:24;;;;;;;7.05;1.33;;;21.80;96.60;;;;;;5085892;28;20055;-42
2022/07/08 10:06:51;;;;;;;4.40;1.08;;;21.90;96.90;;;;;;5087530;28;20036;-41
2022/07/08 10:09:18;;;;;;;5.75;0.82;;;22.00;97.00;;;;;;5087346;28;20139;-41
2022/07/08 10:11:44;;;;;;;5.78;0.80;;;22.10;96.70;;;;;;5086977;28;20047;-40
2022/07/08 10:14:10;;;;;;;4.22;1.25;;;22.00;96.50;;;;;;5087342;28;20048;-41
2022/07/08 10:16:39;;;;;;;3.58;0.55;;;22.00;96.30;;;;;;5087471;28;20055;-40
2022/07/08 10:19:11;;;;;;;5.00;0.73;;;21.80;96.20;;;;;;5087067;28;20090;-41
2022/07/08 10:21:39;;;;;;;7.03;0.80;;;21.60;96.20;;;;;;5087534;28;20331;-43
2022/07/08 10:24:11;;;;;;;4.38;1.30;;;21.60;96.40;;;;;;5087516;28;20040;-41
2022/07/08 10:26:40;;;;;;;8.80;1.25;;;21.50;96.20;;;;;;5087425;28;20040;-41
2022/07/08 10:29:13;;;;;;;5.43;1.08;;;21.50;96.40;;;;;;5069252;28;20386;-42
2022/07/08 10:31:45;;;;;;;4.82;1.25;;;21.60;96.50;;;;;;5086991;28;20082;-45
2022/07/08 10:34:13;;;;;;;6.97;1.23;;;21.70;96.50;;;;;;5078269;28;20646;-39
2022/07/08 10:36:55;;;;;;;5.10;0.80;;;21.80;96.50;;;;;;5081817;28;20040;-45
2022/07/08 10:39:28;;;;;;;6.45;0.70;;;22.10;96.10;;;;;;5084648;28;20368;-40
2022/07/08 10:42:03;;;;;;;6.20;0.82;;;22.40;96.00;;;;;;5084484;28;20489;-37
2022/07/08 10:44:44;;;;;;;8.90;1.63;;;22.70;95.90;;;;;;5085145;28;20123;-40
2022/07/08 10:47:15;;;;;;;4.40;0.55;;;23.00;95.30;;;;;;5087194;28;20040;-40
2022/07/08 10:49:48;;;;;;;4.72;0.63;;;23.40;95.10;;;;;;5088043;28;20327;-43
2022/07/08 10:52:16;;;;;;;5.28;0.95;;;23.90;94.00;;;;;;5090447;28;20439;-42
2022/07/08 10:54:42;;;;;;;6.95;1.08;;;24.20;93.70;;;;;;5090575;28;20040;-45
2022/07/08 10:57:13;;;;;;;5.40;0.80;;;24.90;93.40;;;;;;5090174;28;20134;-42
2022/07/08 10:59:39;;;;;;;7.10;1.13;;;25.30;92.20;;;;;;5090104;28;20068;-43
2022/07/08 11:02:15;;;;;;;3.80;0.70;;;25.60;91.30;;;;;;5089798;28;20094;-42
2022/07/08 11:04:41;;;;;;;3.75;0.55;;;25.80;90.70;;;;;;5090247;28;20079;-42
2022/07/08 11:07:28;;;;;;;5.00;0.98;;;26.00;90.30;;;;;;5090425;28;20079;-42
2022/07/08 11:10:11;;;;;;;5.80;0.90;;;26.10;88.00;;;;;;5088996;28;20465;-42
2022/07/08 11:12:46;;;;;;;5.05;0.73;;;25.70;85.20;;;;;;5090379;28;20122;-45
2022/07/08 11:15:14;;;;;;;10.88;1.48;;;25.50;87.00;;;;;;5089928;28;20040;-43
2022/07/08 11:17:41;;;;;;;6.43;0.90;;;25.20;86.50;;;;;;5090029;28;20513;-44
2022/07/08 11:20:13;;;;;;;3.75;0.60;;;24.90;87.70;;;;;;5090050;28;20080;-42
2022/07/08 11:22:40;;;;;;;4.05;0.68;;;24.60;88.20;;;;;;5089985;28;20055;-42
2022/07/08 11:25:08;;;;;;;7.47;0.88;;;24.40;90.20;;;;;;5089815;28;20072;-43
2022/07/08 11:27:35;;;;;;;5.70;1.50;;;24.40;90.70;;;;;;5089710;28;20048;-42
2022/07/08 11:30:05;;;;;;;5.93;0.80;;;24.60;91.10;;;;;;5089706;28;20040;-44
2022/07/08 11:32:30;;;;;;;3.10;0.55;;;24.80;91.20;;;;;;5089704;28;20044;-44
2022/07/08 11:34:56;;;;;;;6.88;0.70;;;24.90;90.70;;;;;;5090027;28;20122;-43
2022/07/08 11:37:23;;;;;;;7.03;0.85;;;25.00;90.40;;;;;;5090302;28;20040;-43
2022/07/08 11:39:49;;;;;;;3.38;0.60;;;25.10;90.00;;;;;;5087460;28;20677;-44
2022/07/08 11:42:16;;;;;;;8.73;1.35;;;25.30;89.20;;;;;;5089400;28;20485;-42
2022/07/08 11:44:45;;;;;;;5.32;0.90;;;25.40;88.50;;;;;;5089688;28;20446;-43
2022/07/08 11:47:17;;;;;;;4.35;0.80;;;25.50;88.20;;;;;;5090001;28;20043;-43
2022/07/08 11:49:44;;;;;;;5.15;0.70;;;25.60;88.70;;;;;;5090038;28;20377;-42
2022/07/08 11:52:10;;;;;;;8.70;1.30;;;25.70;88.50;;;;;;5089316;28;20036;-43
2022/07/08 11:54:36;;;;;;;4.47;0.60;;;25.70;87.00;;;;;;5089695;28;20036;-43
2022/07/08 11:57:04;;;;;;;4.18;0.80;;;25.60;87.30;;;;;;5088941;28;20097;-43
2022/07/08 11:59:33;;;;;;;5.28;0.70;;;25.60;87.10;;;;;;5089404;28;20035;-43
2022/07/08 12:02:00;;;;;;;3.70;0.70;;;25.60;87.60;;;;;;5087919;28;20055;-44
2022/07/08 12:04:26;;;;;;;2.97;0.60;;;25.70;87.90;;;;;;5089990;28;20044;-42
2022/07/08 12:06:54;;;;;;;5.25;0.75;;;25.80;87.80;;;;;;5089636;28;20044;-44
2022/07/08 12:09:22;;;;;;;10.20;1.02;;;25.80;87.20;;;;;;5088649;28;20117;-45
2022/07/08 12:11:50;;;;;;;3.97;0.68;;;25.80;87.20;;;;;;5089264;28;20048;-44
2022/07/08 12:14:16;;;;;;;4.40;1.10;;;26.00;88.60;;;;;;5088763;28;20048;-44
2022/07/08 12:16:49;;;;;;;5.18;0.60;;;26.00;88.20;;;;;;5089158;28;20040;-42
2022/07/08 12:19:36;;;;;;;5.57;0.88;;;26.00;87.30;;;;;;5089264;28;20131;-43
2022/07/08 12:22:06;;;;;;;5.13;0.88;;;25.90;86.60;;;;;;5088884;28;20044;-42
2022/07/08 12:24:41;;;;;;;5.47;0.68;;;26.00;88.00;;;;;;5088945;28;20051;-42
2022/07/08 12:27:10;;;;;;;4.10;0.65;;;25.90;87.50;;;;;;5088574;28;20120;-42
2022/07/08 12:29:37;;;;;;;5.15;0.60;;;25.80;86.80;;;;;;5088815;28;20039;-43
2022/07/08 12:32:07;;;;;;;2.38;0.30;;;25.70;87.10;;;;;;5088726;28;20151;-44
2022/07/08 12:34:32;;;;;;;3.75;0.60;;;25.70;86.80;;;;;;5088858;28;20054;-42
2022/07/08 12:37:19;;;;;;;3.75;0.60;;;25.70;86.60;;;;;;5089196;28;20473;-44
2022/07/08 12:39:45;;;;;;;4.95;0.60;;;25.80;85.70;;;;;;5088878;28;20047;-44
2022/07/08 12:42:11;;;;;;;4.95;0.70;;;25.90;85.90;;;;;;5088841;28;20040;-45
2022/07/08 12:44:39;;;;;;;4.65;0.98;;;25.70;84.90;;;;;;5088615;28;20043;-44